sensor_id;sensor_type;location;lat;lon;timestamp;P1;durP1;ratioP1;P2;durP2;ratioP2
49502;SDS011;35409;48.776;9.204;2024-02-16T00:00:23;4.70;;;2.92;;
49502;SDS011;35409;48.776;9.204;2024-02-16T00:02:50;5.70;;;2.78;;
49502;SDS011;35409;48.776;9.204;2024-02-16T00:05:15;5.28;;;3.30;;
49502;SDS011;35409;48.776;9.204;2024-02-16T00:07:41;3.80;;;2.78;;
49502;SDS011;35409;48.776;9.204;2024-02-16T00:10:07;5.88;;;2.92;;
49502;SDS011;35409;48.776;9.204;2024-02-16T00:12:34;4.72;;;2.97;;
49502;SDS011;35409;48.776;9.204;2024-02-16T00:15:00;4.88;;;3.15;;
49502;SDS011;35409;48.776;9.204;2024-02-16T00:17:27;6.70;;;3.10;;
49502;SDS011;35409;48.776;9.204;2024-02-16T00:19:56;5.57;;;3.15;;
49502;SDS011;35409;48.776;9.204;2024-02-16T00:22:22;5.07;;;3.17;;
49502;SDS011;35409;48.776;9.204;2024-02-16T00:24:48;4.43;;;3.22;;
49502;SDS011;35409;48.776;9.204;2024-02-16T00:27:14;5.85;;;2.92;;
49502;SDS011;35409;48.776;9.204;2024-02-16T00:29:40;7.35;;;3.20;;
49502;SDS011;35409;48.776;9.204;2024-02-16T00:32:07;6.75;;;2.58;;
49502;SDS011;35409;48.776;9.204;2024-02-16T00:34:33;6.15;;;2.95;;
49502;SDS011;35409;48.776;9.204;2024-02-16T00:37:02;3.33;;;2.23;;
49502;SDS011;35409;48.776;9.204;2024-02-16T00:39:30;3.70;;;2.50;;
49502;SDS011;35409;48.776;9.204;2024-02-16T00:41:56;5.78;;;3.05;;
49502;SDS011;35409;48.776;9.204;2024-02-16T00:44:21;5.85;;;2.42;;
49502;SDS011;35409;48.776;9.204;2024-02-16T00:46:47;4.53;;;2.67;;
49502;SDS011;35409;48.776;9.204;2024-02-16T00:49:12;6.32;;;3.42;;
49502;SDS011;35409;48.776;9.204;2024-02-16T00:51:39;6.63;;;3.17;;
49502;SDS011;35409;48.776;9.204;2024-02-16T00:54:05;4.85;;;3.03;;
49502;SDS011;35409;48.776;9.204;2024-02-16T00:56:31;5.15;;;2.95;;
49502;SDS011;35409;48.776;9.204;2024-02-16T00:58:57;4.93;;;2.80;;
49502;SDS011;35409;48.776;9.204;2024-02-16T01:01:23;4.03;;;2.78;;
49502;SDS011;35409;48.776;9.204;2024-02-16T01:03:51;5.40;;;2.90;;
49502;SDS011;35409;48.776;9.204;2024-02-16T01:06:17;4.78;;;2.90;;
49502;SDS011;35409;48.776;9.204;2024-02-16T01:08:46;4.80;;;2.80;;
49502;SDS011;35409;48.776;9.204;2024-02-16T01:11:12;3.95;;;2.67;;
49502;SDS011;35409;48.776;9.204;2024-02-16T01:13:38;4.32;;;2.95;;
49502;SDS011;35409;48.776;9.204;2024-02-16T01:16:04;5.35;;;2.42;;
49502;SDS011;35409;48.776;9.204;2024-02-16T01:18:30;4.05;;;2.63;;
49502;SDS011;35409;48.776;9.204;2024-02-16T01:20:57;3.38;;;2.22;;
49502;SDS011;35409;48.776;9.204;2024-02-16T01:23:23;4.18;;;2.47;;
49502;SDS011;35409;48.776;9.204;2024-02-16T01:25:49;5.05;;;2.92;;
49502;SDS011;35409;48.776;9.204;2024-02-16T01:28:14;4.05;;;2.45;;
49502;SDS011;35409;48.776;9.204;2024-02-16T01:30:41;6.22;;;2.70;;
49502;SDS011;35409;48.776;9.204;2024-02-16T01:33:10;4.30;;;2.55;;
49502;SDS011;35409;48.776;9.204;2024-02-16T01:35:35;2.90;;;2.28;;
49502;SDS011;35409;48.776;9.204;2024-02-16T01:38:01;4.13;;;2.78;;
49502;SDS011;35409;48.776;9.204;2024-02-16T01:40:27;4.70;;;2.58;;
49502;SDS011;35409;48.776;9.204;2024-02-16T01:42:53;5.20;;;2.35;;
49502;SDS011;35409;48.776;9.204;2024-02-16T01:45:19;4.07;;;2.60;;
49502;SDS011;35409;48.776;9.204;2024-02-16T01:47:45;4.45;;;2.28;;
49502;SDS011;35409;48.776;9.204;2024-02-16T01:50:13;2.95;;;2.08;;
49502;SDS011;35409;48.776;9.204;2024-02-16T01:52:41;2.65;;;1.90;;
49502;SDS011;35409;48.776;9.204;2024-02-16T01:55:08;3.95;;;2.35;;
49502;SDS011;35409;48.776;9.204;2024-02-16T01:57:39;5.05;;;2.30;;
49502;SDS011;35409;48.776;9.204;2024-02-16T02:00:08;4.10;;;2.58;;
49502;SDS011;35409;48.776;9.204;2024-02-16T02:02:35;5.33;;;2.40;;
49502;SDS011;35409;48.776;9.204;2024-02-16T02:05:01;5.05;;;2.67;;
49502;SDS011;35409;48.776;9.204;2024-02-16T02:07:27;5.63;;;2.53;;
49502;SDS011;35409;48.776;9.204;2024-02-16T02:09:53;6.97;;;2.90;;
49502;SDS011;35409;48.776;9.204;2024-02-16T02:12:19;2.70;;;2.08;;
49502;SDS011;35409;48.776;9.204;2024-02-16T02:14:45;3.65;;;2.30;;
49502;SDS011;35409;48.776;9.204;2024-02-16T02:17:11;2.85;;;2.17;;
49502;SDS011;35409;48.776;9.204;2024-02-16T02:19:38;5.70;;;2.67;;
49502;SDS011;35409;48.776;9.204;2024-02-16T02:22:04;3.88;;;2.63;;
49502;SDS011;35409;48.776;9.204;2024-02-16T02:24:30;3.85;;;2.50;;
49502;SDS011;35409;48.776;9.204;2024-02-16T02:26:55;4.95;;;2.97;;
49502;SDS011;35409;48.776;9.204;2024-02-16T02:29:22;9.52;;;3.30;;
49502;SDS011;35409;48.776;9.204;2024-02-16T02:31:48;6.95;;;4.25;;
49502;SDS011;35409;48.776;9.204;2024-02-16T02:34:14;9.85;;;4.53;;
49502;SDS011;35409;48.776;9.204;2024-02-16T02:36:40;10.10;;;5.38;;
49502;SDS011;35409;48.776;9.204;2024-02-16T02:39:06;5.50;;;3.70;;
49502;SDS011;35409;48.776;9.204;2024-02-16T02:41:32;6.18;;;3.75;;
49502;SDS011;35409;48.776;9.204;2024-02-16T02:43:57;8.02;;;3.67;;
49502;SDS011;35409;48.776;9.204;2024-02-16T02:46:23;8.00;;;3.97;;
49502;SDS011;35409;48.776;9.204;2024-02-16T02:48:50;6.60;;;3.83;;
49502;SDS011;35409;48.776;9.204;2024-02-16T02:51:16;5.95;;;3.75;;
49502;SDS011;35409;48.776;9.204;2024-02-16T02:53:42;6.90;;;3.47;;
49502;SDS011;35409;48.776;9.204;2024-02-16T02:56:08;5.63;;;3.38;;
49502;SDS011;35409;48.776;9.204;2024-02-16T02:58:34;9.50;;;3.83;;
49502;SDS011;35409;48.776;9.204;2024-02-16T03:00:59;7.60;;;3.10;;
49502;SDS011;35409;48.776;9.204;2024-02-16T03:03:25;5.93;;;3.17;;
49502;SDS011;35409;48.776;9.204;2024-02-16T03:05:51;7.18;;;3.55;;
49502;SDS011;35409;48.776;9.204;2024-02-16T03:08:17;7.50;;;3.58;;
49502;SDS011;35409;48.776;9.204;2024-02-16T03:10:42;6.00;;;3.28;;
49502;SDS011;35409;48.776;9.204;2024-02-16T03:13:09;6.82;;;3.65;;
49502;SDS011;35409;48.776;9.204;2024-02-16T03:15:37;4.90;;;2.92;;
49502;SDS011;35409;48.776;9.204;2024-02-16T03:18:04;6.22;;;3.75;;
49502;SDS011;35409;48.776;9.204;2024-02-16T03:20:33;4.97;;;3.20;;
49502;SDS011;35409;48.776;9.204;2024-02-16T03:22:59;6.00;;;3.60;;
49502;SDS011;35409;48.776;9.204;2024-02-16T03:25:25;7.60;;;4.18;;
49502;SDS011;35409;48.776;9.204;2024-02-16T03:27:51;5.20;;;3.22;;
49502;SDS011;35409;48.776;9.204;2024-02-16T03:30:18;5.18;;;3.15;;
49502;SDS011;35409;48.776;9.204;2024-02-16T03:32:48;6.18;;;3.50;;
49502;SDS011;35409;48.776;9.204;2024-02-16T03:35:17;4.90;;;3.50;;
49502;SDS011;35409;48.776;9.204;2024-02-16T03:37:43;5.50;;;3.78;;
49502;SDS011;35409;48.776;9.204;2024-02-16T03:40:10;6.28;;;3.53;;
49502;SDS011;35409;48.776;9.204;2024-02-16T03:42:37;5.30;;;3.72;;
49502;SDS011;35409;48.776;9.204;2024-02-16T03:45:04;5.68;;;3.13;;
49502;SDS011;35409;48.776;9.204;2024-02-16T03:47:30;4.90;;;3.05;;
49502;SDS011;35409;48.776;9.204;2024-02-16T03:49:55;4.18;;;2.80;;
49502;SDS011;35409;48.776;9.204;2024-02-16T03:52:21;3.65;;;2.47;;
49502;SDS011;35409;48.776;9.204;2024-02-16T03:54:46;6.28;;;2.90;;
49502;SDS011;35409;48.776;9.204;2024-02-16T03:57:15;4.82;;;2.95;;
49502;SDS011;35409;48.776;9.204;2024-02-16T03:59:44;4.55;;;2.85;;
49502;SDS011;35409;48.776;9.204;2024-02-16T04:02:11;4.75;;;2.63;;
49502;SDS011;35409;48.776;9.204;2024-02-16T04:04:38;4.55;;;2.53;;
49502;SDS011;35409;48.776;9.204;2024-02-16T04:07:04;4.10;;;2.03;;
49502;SDS011;35409;48.776;9.204;2024-02-16T04:09:32;5.88;;;2.83;;
49502;SDS011;35409;48.776;9.204;2024-02-16T04:12:01;7.28;;;3.42;;
49502;SDS011;35409;48.776;9.204;2024-02-16T04:14:27;7.25;;;3.33;;
49502;SDS011;35409;48.776;9.204;2024-02-16T04:16:52;5.65;;;3.42;;
49502;SDS011;35409;48.776;9.204;2024-02-16T04:19:18;7.63;;;4.22;;
49502;SDS011;35409;48.776;9.204;2024-02-16T04:21:44;9.63;;;3.92;;
49502;SDS011;35409;48.776;9.204;2024-02-16T04:24:09;7.18;;;4.15;;
49502;SDS011;35409;48.776;9.204;2024-02-16T04:26:35;6.45;;;3.95;;
49502;SDS011;35409;48.776;9.204;2024-02-16T04:29:02;6.18;;;3.33;;
49502;SDS011;35409;48.776;9.204;2024-02-16T04:31:29;7.78;;;3.92;;
49502;SDS011;35409;48.776;9.204;2024-02-16T04:33:55;9.23;;;5.00;;
49502;SDS011;35409;48.776;9.204;2024-02-16T04:36:21;9.15;;;5.20;;
49502;SDS011;35409;48.776;9.204;2024-02-16T04:38:46;9.85;;;4.95;;
49502;SDS011;35409;48.776;9.204;2024-02-16T04:41:12;7.30;;;4.40;;
49502;SDS011;35409;48.776;9.204;2024-02-16T04:43:38;9.50;;;4.72;;
49502;SDS011;35409;48.776;9.204;2024-02-16T04:46:04;7.72;;;4.07;;
49502;SDS011;35409;48.776;9.204;2024-02-16T04:48:30;8.10;;;4.32;;
49502;SDS011;35409;48.776;9.204;2024-02-16T04:50:57;6.82;;;4.38;;
49502;SDS011;35409;48.776;9.204;2024-02-16T04:53:22;7.97;;;4.65;;
49502;SDS011;35409;48.776;9.204;2024-02-16T04:55:48;6.53;;;4.25;;
49502;SDS011;35409;48.776;9.204;2024-02-16T04:58:14;8.23;;;4.40;;
49502;SDS011;35409;48.776;9.204;2024-02-16T05:00:39;6.30;;;4.05;;
49502;SDS011;35409;48.776;9.204;2024-02-16T05:03:05;7.43;;;4.90;;
49502;SDS011;35409;48.776;9.204;2024-02-16T05:05:31;7.10;;;4.75;;
49502;SDS011;35409;48.776;9.204;2024-02-16T05:07:56;7.20;;;4.45;;
49502;SDS011;35409;48.776;9.204;2024-02-16T05:10:22;8.90;;;5.05;;
49502;SDS011;35409;48.776;9.204;2024-02-16T05:12:48;5.70;;;3.97;;
49502;SDS011;35409;48.776;9.204;2024-02-16T05:15:13;6.65;;;4.35;;
49502;SDS011;35409;48.776;9.204;2024-02-16T05:17:39;8.75;;;4.80;;
49502;SDS011;35409;48.776;9.204;2024-02-16T05:20:09;10.23;;;4.97;;
49502;SDS011;35409;48.776;9.204;2024-02-16T05:22:40;7.45;;;5.00;;
49502;SDS011;35409;48.776;9.204;2024-02-16T05:25:10;6.43;;;3.85;;
49502;SDS011;35409;48.776;9.204;2024-02-16T05:27:43;7.70;;;4.80;;
49502;SDS011;35409;48.776;9.204;2024-02-16T05:30:09;9.45;;;4.72;;
49502;SDS011;35409;48.776;9.204;2024-02-16T05:32:37;9.27;;;5.20;;
49502;SDS011;35409;48.776;9.204;2024-02-16T05:35:04;9.55;;;6.03;;
49502;SDS011;35409;48.776;9.204;2024-02-16T05:37:43;7.30;;;5.22;;
49502;SDS011;35409;48.776;9.204;2024-02-16T05:40:10;11.07;;;6.35;;
49502;SDS011;35409;48.776;9.204;2024-02-16T05:42:55;8.20;;;5.60;;
49502;SDS011;35409;48.776;9.204;2024-02-16T05:45:23;9.55;;;6.18;;
49502;SDS011;35409;48.776;9.204;2024-02-16T05:47:49;9.20;;;5.68;;
49502;SDS011;35409;48.776;9.204;2024-02-16T05:50:15;9.98;;;5.25;;
49502;SDS011;35409;48.776;9.204;2024-02-16T05:52:42;8.40;;;5.13;;
49502;SDS011;35409;48.776;9.204;2024-02-16T05:55:08;8.75;;;5.03;;
49502;SDS011;35409;48.776;9.204;2024-02-16T05:57:35;9.82;;;5.97;;
49502;SDS011;35409;48.776;9.204;2024-02-16T06:00:02;10.88;;;5.65;;
49502;SDS011;35409;48.776;9.204;2024-02-16T06:02:30;6.43;;;4.85;;
49502;SDS011;35409;48.776;9.204;2024-02-16T06:04:56;8.68;;;5.15;;
49502;SDS011;35409;48.776;9.204;2024-02-16T06:07:22;7.32;;;4.63;;
49502;SDS011;35409;48.776;9.204;2024-02-16T06:09:48;9.77;;;5.20;;
49502;SDS011;35409;48.776;9.204;2024-02-16T06:12:14;10.27;;;5.25;;
49502;SDS011;35409;48.776;9.204;2024-02-16T06:14:40;7.70;;;4.20;;
49502;SDS011;35409;48.776;9.204;2024-02-16T06:17:07;11.57;;;4.97;;
49502;SDS011;35409;48.776;9.204;2024-02-16T06:19:33;7.28;;;4.47;;
49502;SDS011;35409;48.776;9.204;2024-02-16T06:21:59;8.90;;;5.15;;
49502;SDS011;35409;48.776;9.204;2024-02-16T06:24:25;8.00;;;4.63;;
49502;SDS011;35409;48.776;9.204;2024-02-16T06:26:51;8.43;;;5.03;;
49502;SDS011;35409;48.776;9.204;2024-02-16T06:29:17;10.85;;;5.55;;
49502;SDS011;35409;48.776;9.204;2024-02-16T06:31:44;8.93;;;5.60;;
49502;SDS011;35409;48.776;9.204;2024-02-16T06:34:13;12.23;;;5.68;;
49502;SDS011;35409;48.776;9.204;2024-02-16T06:36:39;15.73;;;8.75;;
49502;SDS011;35409;48.776;9.204;2024-02-16T06:39:05;9.77;;;7.00;;
49502;SDS011;35409;48.776;9.204;2024-02-16T06:41:31;8.93;;;5.15;;
49502;SDS011;35409;48.776;9.204;2024-02-16T06:43:56;7.57;;;5.22;;
49502;SDS011;35409;48.776;9.204;2024-02-16T06:46:22;9.60;;;5.22;;
49502;SDS011;35409;48.776;9.204;2024-02-16T06:48:49;9.93;;;5.13;;
49502;SDS011;35409;48.776;9.204;2024-02-16T06:51:15;8.98;;;4.97;;
49502;SDS011;35409;48.776;9.204;2024-02-16T06:53:41;11.80;;;4.85;;
49502;SDS011;35409;48.776;9.204;2024-02-16T06:56:06;11.35;;;5.18;;
49502;SDS011;35409;48.776;9.204;2024-02-16T06:58:32;10.23;;;4.97;;
49502;SDS011;35409;48.776;9.204;2024-02-16T07:00:59;7.53;;;3.80;;
49502;SDS011;35409;48.776;9.204;2024-02-16T07:03:28;7.20;;;3.95;;
49502;SDS011;35409;48.776;9.204;2024-02-16T07:05:53;5.15;;;3.45;;
49502;SDS011;35409;48.776;9.204;2024-02-16T07:08:19;7.55;;;4.10;;
49502;SDS011;35409;48.776;9.204;2024-02-16T07:10:46;7.32;;;4.00;;
49502;SDS011;35409;48.776;9.204;2024-02-16T07:16:28;6.13;;;3.67;;
49502;SDS011;35409;48.776;9.204;2024-02-16T07:18:57;7.10;;;3.65;;
49502;SDS011;35409;48.776;9.204;2024-02-16T07:21:22;5.28;;;3.40;;
49502;SDS011;35409;48.776;9.204;2024-02-16T07:23:48;8.48;;;3.55;;
49502;SDS011;35409;48.776;9.204;2024-02-16T07:26:14;10.48;;;4.00;;
49502;SDS011;35409;48.776;9.204;2024-02-16T07:28:41;7.10;;;3.47;;
49502;SDS011;35409;48.776;9.204;2024-02-16T07:31:07;10.18;;;4.22;;
49502;SDS011;35409;48.776;9.204;2024-02-16T07:33:32;5.88;;;3.63;;
49502;SDS011;35409;48.776;9.204;2024-02-16T07:35:58;5.45;;;3.70;;
49502;SDS011;35409;48.776;9.204;2024-02-16T07:38:24;8.32;;;3.70;;
49502;SDS011;35409;48.776;9.204;2024-02-16T07:40:49;9.32;;;4.05;;
49502;SDS011;35409;48.776;9.204;2024-02-16T07:43:15;9.48;;;4.70;;
49502;SDS011;35409;48.776;9.204;2024-02-16T07:45:41;8.20;;;4.78;;
49502;SDS011;35409;48.776;9.204;2024-02-16T07:48:07;8.00;;;4.32;;
49502;SDS011;35409;48.776;9.204;2024-02-16T07:50:33;11.60;;;3.53;;
49502;SDS011;35409;48.776;9.204;2024-02-16T07:52:59;7.20;;;3.25;;
49502;SDS011;35409;48.776;9.204;2024-02-16T07:55:24;9.23;;;3.30;;
49502;SDS011;35409;48.776;9.204;2024-02-16T07:57:51;6.60;;;3.63;;
49502;SDS011;35409;48.776;9.204;2024-02-16T08:00:17;6.30;;;3.50;;
49502;SDS011;35409;48.776;9.204;2024-02-16T08:02:43;13.48;;;4.88;;
49502;SDS011;35409;48.776;9.204;2024-02-16T08:05:10;7.93;;;4.80;;
49502;SDS011;35409;48.776;9.204;2024-02-16T08:10:28;10.45;;;4.95;;
49502;SDS011;35409;48.776;9.204;2024-02-16T08:12:54;11.23;;;5.15;;
49502;SDS011;35409;48.776;9.204;2024-02-16T08:15:20;11.98;;;5.15;;
49502;SDS011;35409;48.776;9.204;2024-02-16T08:17:49;9.18;;;5.32;;
49502;SDS011;35409;48.776;9.204;2024-02-16T08:20:17;10.10;;;5.50;;
49502;SDS011;35409;48.776;9.204;2024-02-16T08:22:43;9.80;;;5.35;;
49502;SDS011;35409;48.776;9.204;2024-02-16T08:25:09;8.15;;;5.15;;
49502;SDS011;35409;48.776;9.204;2024-02-16T08:27:34;9.32;;;4.45;;
49502;SDS011;35409;48.776;9.204;2024-02-16T08:30:00;10.20;;;4.75;;
49502;SDS011;35409;48.776;9.204;2024-02-16T08:32:27;12.07;;;5.72;;
49502;SDS011;35409;48.776;9.204;2024-02-16T08:34:53;10.52;;;5.65;;
49502;SDS011;35409;48.776;9.204;2024-02-16T08:37:21;13.25;;;5.43;;
49502;SDS011;35409;48.776;9.204;2024-02-16T08:39:46;9.27;;;5.47;;
49502;SDS011;35409;48.776;9.204;2024-02-16T08:42:12;12.27;;;5.53;;
49502;SDS011;35409;48.776;9.204;2024-02-16T08:44:38;7.32;;;4.38;;
49502;SDS011;35409;48.776;9.204;2024-02-16T08:47:05;9.27;;;5.20;;
49502;SDS011;35409;48.776;9.204;2024-02-16T08:49:32;9.38;;;4.85;;
49502;SDS011;35409;48.776;9.204;2024-02-16T08:51:58;7.15;;;4.78;;
49502;SDS011;35409;48.776;9.204;2024-02-16T08:54:23;7.60;;;4.20;;
49502;SDS011;35409;48.776;9.204;2024-02-16T08:56:50;9.35;;;4.78;;
49502;SDS011;35409;48.776;9.204;2024-02-16T08:59:16;12.73;;;4.95;;
49502;SDS011;35409;48.776;9.204;2024-02-16T09:01:42;14.65;;;4.35;;
49502;SDS011;35409;48.776;9.204;2024-02-16T09:04:08;7.95;;;4.68;;
49502;SDS011;35409;48.776;9.204;2024-02-16T09:06:34;26.98;;;5.47;;
49502;SDS011;35409;48.776;9.204;2024-02-16T09:09:00;11.00;;;4.13;;
49502;SDS011;35409;48.776;9.204;2024-02-16T09:11:26;20.55;;;4.70;;
49502;SDS011;35409;48.776;9.204;2024-02-16T09:13:52;9.77;;;4.03;;
49502;SDS011;35409;48.776;9.204;2024-02-16T09:16:18;13.60;;;4.00;;
49502;SDS011;35409;48.776;9.204;2024-02-16T09:18:44;7.53;;;3.95;;
49502;SDS011;35409;48.776;9.204;2024-02-16T09:21:10;9.52;;;3.97;;
49502;SDS011;35409;48.776;9.204;2024-02-16T09:23:37;7.30;;;3.70;;
49502;SDS011;35409;48.776;9.204;2024-02-16T09:26:03;7.80;;;3.95;;
49502;SDS011;35409;48.776;9.204;2024-02-16T09:28:29;8.20;;;3.90;;
49502;SDS011;35409;48.776;9.204;2024-02-16T09:30:55;5.60;;;3.75;;
49502;SDS011;35409;48.776;9.204;2024-02-16T09:33:21;5.80;;;3.67;;
49502;SDS011;35409;48.776;9.204;2024-02-16T09:35:47;8.20;;;3.60;;
49502;SDS011;35409;48.776;9.204;2024-02-16T09:38:14;8.32;;;3.70;;
49502;SDS011;35409;48.776;9.204;2024-02-16T09:40:39;6.78;;;3.90;;
49502;SDS011;35409;48.776;9.204;2024-02-16T09:43:05;6.38;;;3.95;;
49502;SDS011;35409;48.776;9.204;2024-02-16T09:45:31;8.52;;;4.00;;
49502;SDS011;35409;48.776;9.204;2024-02-16T09:47:58;5.95;;;3.63;;
49502;SDS011;35409;48.776;9.204;2024-02-16T09:50:24;9.82;;;3.85;;
49502;SDS011;35409;48.776;9.204;2024-02-16T09:52:51;11.73;;;4.47;;
49502;SDS011;35409;48.776;9.204;2024-02-16T09:55:19;9.98;;;4.70;;
49502;SDS011;35409;48.776;9.204;2024-02-16T09:57:45;7.95;;;4.47;;
49502;SDS011;35409;48.776;9.204;2024-02-16T10:00:11;8.40;;;4.25;;
49502;SDS011;35409;48.776;9.204;2024-02-16T10:02:43;9.98;;;4.13;;
49502;SDS011;35409;48.776;9.204;2024-02-16T10:07:40;5.53;;;3.80;;
49502;SDS011;35409;48.776;9.204;2024-02-16T10:10:06;5.65;;;4.30;;
49502;SDS011;35409;48.776;9.204;2024-02-16T10:12:31;9.95;;;4.10;;
49502;SDS011;35409;48.776;9.204;2024-02-16T10:14:57;7.85;;;4.28;;
49502;SDS011;35409;48.776;9.204;2024-02-16T10:17:24;10.40;;;4.40;;
49502;SDS011;35409;48.776;9.204;2024-02-16T10:19:56;6.57;;;3.97;;
49502;SDS011;35409;48.776;9.204;2024-02-16T10:22:31;9.63;;;4.20;;
49502;SDS011;35409;48.776;9.204;2024-02-16T10:25:06;9.90;;;4.25;;
49502;SDS011;35409;48.776;9.204;2024-02-16T10:27:36;8.88;;;4.30;;
49502;SDS011;35409;48.776;9.204;2024-02-16T10:30:02;7.13;;;3.65;;
49502;SDS011;35409;48.776;9.204;2024-02-16T10:32:34;12.05;;;4.18;;
49502;SDS011;35409;48.776;9.204;2024-02-16T10:35:04;13.27;;;5.07;;
49502;SDS011;35409;48.776;9.204;2024-02-16T10:37:33;7.00;;;3.97;;
49502;SDS011;35409;48.776;9.204;2024-02-16T10:39:59;11.80;;;4.80;;
49502;SDS011;35409;48.776;9.204;2024-02-16T10:42:27;10.85;;;4.50;;
49502;SDS011;35409;48.776;9.204;2024-02-16T10:44:54;14.13;;;4.50;;
49502;SDS011;35409;48.776;9.204;2024-02-16T10:47:20;8.85;;;4.10;;
49502;SDS011;35409;48.776;9.204;2024-02-16T10:49:46;9.50;;;4.35;;
49502;SDS011;35409;48.776;9.204;2024-02-16T10:52:11;6.78;;;4.00;;
49502;SDS011;35409;48.776;9.204;2024-02-16T10:54:39;8.35;;;3.80;;
49502;SDS011;35409;48.776;9.204;2024-02-16T10:57:10;9.05;;;3.83;;
49502;SDS011;35409;48.776;9.204;2024-02-16T10:59:41;7.25;;;3.60;;
49502;SDS011;35409;48.776;9.204;2024-02-16T11:02:09;7.40;;;3.78;;
49502;SDS011;35409;48.776;9.204;2024-02-16T11:04:37;4.68;;;2.85;;
49502;SDS011;35409;48.776;9.204;2024-02-16T11:07:10;6.20;;;3.17;;
49502;SDS011;35409;48.776;9.204;2024-02-16T11:09:38;7.22;;;3.33;;
49502;SDS011;35409;48.776;9.204;2024-02-16T11:12:05;7.10;;;3.28;;
49502;SDS011;35409;48.776;9.204;2024-02-16T11:14:46;11.20;;;3.92;;
49502;SDS011;35409;48.776;9.204;2024-02-16T11:17:21;10.93;;;3.80;;
49502;SDS011;35409;48.776;9.204;2024-02-16T11:19:48;5.18;;;3.00;;
49502;SDS011;35409;48.776;9.204;2024-02-16T11:22:15;9.45;;;4.07;;
49502;SDS011;35409;48.776;9.204;2024-02-16T11:24:53;9.25;;;3.40;;
49502;SDS011;35409;48.776;9.204;2024-02-16T11:27:19;5.28;;;3.35;;
49502;SDS011;35409;48.776;9.204;2024-02-16T11:29:46;7.28;;;3.47;;
49502;SDS011;35409;48.776;9.204;2024-02-16T11:32:12;6.97;;;3.40;;
49502;SDS011;35409;48.776;9.204;2024-02-16T11:34:37;10.57;;;3.95;;
49502;SDS011;35409;48.776;9.204;2024-02-16T11:37:04;6.78;;;3.13;;
49502;SDS011;35409;48.776;9.204;2024-02-16T11:39:33;6.70;;;2.97;;
49502;SDS011;35409;48.776;9.204;2024-02-16T11:42:05;8.48;;;3.63;;
49502;SDS011;35409;48.776;9.204;2024-02-16T11:44:33;9.40;;;3.80;;
49502;SDS011;35409;48.776;9.204;2024-02-16T11:47:00;6.35;;;3.30;;
49502;SDS011;35409;48.776;9.204;2024-02-16T11:49:27;8.27;;;3.35;;
49502;SDS011;35409;48.776;9.204;2024-02-16T11:51:54;5.75;;;3.35;;
49502;SDS011;35409;48.776;9.204;2024-02-16T11:54:20;4.97;;;2.72;;
49502;SDS011;35409;48.776;9.204;2024-02-16T11:56:46;3.85;;;2.40;;
49502;SDS011;35409;48.776;9.204;2024-02-16T11:59:16;4.78;;;2.95;;
49502;SDS011;35409;48.776;9.204;2024-02-16T12:01:51;8.85;;;2.72;;
49502;SDS011;35409;48.776;9.204;2024-02-16T12:04:22;5.10;;;2.40;;
49502;SDS011;35409;48.776;9.204;2024-02-16T12:06:50;6.60;;;2.30;;
49502;SDS011;35409;48.776;9.204;2024-02-16T12:09:16;5.55;;;2.53;;
49502;SDS011;35409;48.776;9.204;2024-02-16T12:11:42;4.32;;;2.53;;
49502;SDS011;35409;48.776;9.204;2024-02-16T12:14:08;6.60;;;2.25;;
49502;SDS011;35409;48.776;9.204;2024-02-16T12:16:34;6.13;;;2.75;;
49502;SDS011;35409;48.776;9.204;2024-02-16T12:19:06;5.75;;;2.42;;
49502;SDS011;35409;48.776;9.204;2024-02-16T12:21:33;7.47;;;2.67;;
49502;SDS011;35409;48.776;9.204;2024-02-16T12:24:00;5.72;;;2.80;;
49502;SDS011;35409;48.776;9.204;2024-02-16T12:26:26;4.75;;;2.58;;
49502;SDS011;35409;48.776;9.204;2024-02-16T12:28:52;5.15;;;2.55;;
49502;SDS011;35409;48.776;9.204;2024-02-16T12:31:21;9.38;;;2.72;;
49502;SDS011;35409;48.776;9.204;2024-02-16T12:33:47;6.97;;;2.90;;
49502;SDS011;35409;48.776;9.204;2024-02-16T12:36:13;6.88;;;3.00;;
49502;SDS011;35409;48.776;9.204;2024-02-16T12:38:42;5.88;;;2.67;;
49502;SDS011;35409;48.776;9.204;2024-02-16T12:41:08;3.67;;;2.50;;
49502;SDS011;35409;48.776;9.204;2024-02-16T12:43:34;6.18;;;2.70;;
49502;SDS011;35409;48.776;9.204;2024-02-16T12:46:00;5.00;;;3.00;;
49502;SDS011;35409;48.776;9.204;2024-02-16T12:48:28;5.72;;;2.95;;
49502;SDS011;35409;48.776;9.204;2024-02-16T12:50:54;4.72;;;2.63;;
49502;SDS011;35409;48.776;9.204;2024-02-16T12:53:22;6.90;;;2.50;;
49502;SDS011;35409;48.776;9.204;2024-02-16T12:55:50;4.72;;;3.10;;
49502;SDS011;35409;48.776;9.204;2024-02-16T12:58:16;5.80;;;2.92;;
49502;SDS011;35409;48.776;9.204;2024-02-16T13:00:42;3.90;;;2.70;;
49502;SDS011;35409;48.776;9.204;2024-02-16T13:03:08;6.07;;;2.75;;
49502;SDS011;35409;48.776;9.204;2024-02-16T13:05:34;8.45;;;2.65;;
49502;SDS011;35409;48.776;9.204;2024-02-16T13:08:00;4.40;;;2.72;;
49502;SDS011;35409;48.776;9.204;2024-02-16T13:10:26;6.30;;;2.75;;
49502;SDS011;35409;48.776;9.204;2024-02-16T13:12:52;4.93;;;2.60;;
49502;SDS011;35409;48.776;9.204;2024-02-16T13:15:18;6.00;;;2.60;;
49502;SDS011;35409;48.776;9.204;2024-02-16T13:17:44;4.57;;;2.42;;
49502;SDS011;35409;48.776;9.204;2024-02-16T13:20:10;4.85;;;2.80;;
49502;SDS011;35409;48.776;9.204;2024-02-16T13:22:36;6.07;;;2.72;;
49502;SDS011;35409;48.776;9.204;2024-02-16T13:25:05;8.73;;;3.28;;
49502;SDS011;35409;48.776;9.204;2024-02-16T13:27:32;6.78;;;2.72;;
49502;SDS011;35409;48.776;9.204;2024-02-16T13:29:59;6.47;;;2.88;;
49502;SDS011;35409;48.776;9.204;2024-02-16T13:32:25;8.25;;;3.53;;
49502;SDS011;35409;48.776;9.204;2024-02-16T13:34:51;6.03;;;3.15;;
49502;SDS011;35409;48.776;9.204;2024-02-16T13:37:17;9.88;;;2.88;;
49502;SDS011;35409;48.776;9.204;2024-02-16T13:39:43;8.65;;;3.17;;
49502;SDS011;35409;48.776;9.204;2024-02-16T13:42:09;7.05;;;2.55;;
49502;SDS011;35409;48.776;9.204;2024-02-16T13:44:35;4.20;;;2.53;;
49502;SDS011;35409;48.776;9.204;2024-02-16T13:47:02;4.93;;;2.88;;
49502;SDS011;35409;48.776;9.204;2024-02-16T13:49:28;4.50;;;2.63;;
49502;SDS011;35409;48.776;9.204;2024-02-16T13:51:54;7.05;;;2.65;;
49502;SDS011;35409;48.776;9.204;2024-02-16T13:54:23;6.00;;;2.50;;
49502;SDS011;35409;48.776;9.204;2024-02-16T13:56:49;5.93;;;2.30;;
49502;SDS011;35409;48.776;9.204;2024-02-16T13:59:15;5.72;;;2.40;;
49502;SDS011;35409;48.776;9.204;2024-02-16T14:01:41;7.68;;;2.72;;
49502;SDS011;35409;48.776;9.204;2024-02-16T14:04:07;5.70;;;3.10;;
49502;SDS011;35409;48.776;9.204;2024-02-16T14:06:33;8.13;;;2.45;;
49502;SDS011;35409;48.776;9.204;2024-02-16T14:09:00;5.32;;;2.50;;
49502;SDS011;35409;48.776;9.204;2024-02-16T14:11:26;6.68;;;2.47;;
49502;SDS011;35409;48.776;9.204;2024-02-16T14:13:52;5.25;;;2.58;;
49502;SDS011;35409;48.776;9.204;2024-02-16T14:16:18;8.05;;;2.65;;
49502;SDS011;35409;48.776;9.204;2024-02-16T14:18:44;8.32;;;2.90;;
49502;SDS011;35409;48.776;9.204;2024-02-16T14:21:10;4.00;;;2.38;;
49502;SDS011;35409;48.776;9.204;2024-02-16T14:23:37;5.20;;;2.47;;
49502;SDS011;35409;48.776;9.204;2024-02-16T14:26:03;8.07;;;2.60;;
49502;SDS011;35409;48.776;9.204;2024-02-16T14:28:29;4.82;;;2.50;;
49502;SDS011;35409;48.776;9.204;2024-02-16T14:30:56;8.00;;;2.55;;
49502;SDS011;35409;48.776;9.204;2024-02-16T14:33:22;8.23;;;2.78;;
49502;SDS011;35409;48.776;9.204;2024-02-16T14:35:48;5.80;;;2.55;;
49502;SDS011;35409;48.776;9.204;2024-02-16T14:38:15;7.15;;;2.67;;
49502;SDS011;35409;48.776;9.204;2024-02-16T14:40:41;4.65;;;2.47;;
49502;SDS011;35409;48.776;9.204;2024-02-16T14:43:07;8.80;;;2.78;;
49502;SDS011;35409;48.776;9.204;2024-02-16T14:45:33;4.15;;;2.33;;
49502;SDS011;35409;48.776;9.204;2024-02-16T14:47:59;4.88;;;2.47;;
49502;SDS011;35409;48.776;9.204;2024-02-16T14:50:25;12.60;;;3.55;;